Latest Coastal Weather Observations for Redcliffe

IDQ60701

Issued at 8:12 pm EST Tuesday 9 February 2016 (issued every 10 minutes, with the page automatically refreshed every 10 minutes)

About coastal observations | Map of coastal stations | Coastal observations for QLD | Marine services | Other Formats
Station Details ID: 040958 Name: REDCLIFFE Lat: -27.22 Lon: 153.09 Height: 12.6 m
Data from the previous 72 hours. | See also: Recent months at Redcliffe
Date/Time
EST
Temp

°C
Wind Pressure Rain
since 9am
mm
Weather Cloud Vis
km
Sea
Height
m
Swell
Dir
 
Speed
knots
Gust
knots
hPa Trend Height
m
Period
s
Dir
09/08:00pm 24.6 SSE 25 29 1015.3 - 0.0 - - - - - - -
09/07:30pm 24.7 SSE 24 28 1015.2 - 0.0 - - - - - - -
09/07:00pm 25.0 SSE 26 30 1014.7 - 0.0 - - - - - - -
09/06:30pm 25.3 SSE 27 32 1014.4 - 0.0 - - - - - - -
09/06:00pm 25.5 SSE 26 29 1014.0 - 0.0 - - - - - - -
09/05:30pm 26.0 SE 27 31 1013.6 - 0.0 - - - - - - -
09/05:00pm 26.2 SE 26 30 1013.5 - 0.0 - - - - - - -
09/04:30pm 26.4 SE 27 32 1013.5 - 0.0 - - - - - - -
09/04:00pm 27.5 SE 26 30 1013.6 - 0.0 - - - - - - -
09/03:30pm 26.8 SE 27 31 1013.1 - 0.0 - - - - - - -
09/03:00pm 26.8 SE 27 32 1013.3 - 0.0 - - - - - - -
09/02:30pm 27.3 SE 26 29 1013.5 - 0.0 - - - - - - -
09/02:00pm 27.2 SSE 25 29 1013.6 - 0.0 - - - - - - -
09/01:30pm 27.2 SE 25 30 1013.7 - 0.0 - - - - - - -
09/01:00pm 27.7 SE 24 28 1014.2 - 0.0 - - - - - - -
09/12:30pm 28.0 SE 24 28 1014.3 - 0.0 - - - - - - -
09/12:00pm 27.3 SSE 23 26 1014.4 - 0.0 - - - - - - -
09/11:30am 27.6 SSE 24 28 1014.7 - 0.0 - - - - - - -
09/11:00am 27.7 SSE 21 25 1015.1 - 0.0 - - - - - - -
09/10:30am 27.0 SSE 21 26 1015.2 - 0.0 - - - - - - -
09/10:00am 27.3 SSE 21 26 1015.6 - 0.0 - - - - - - -
09/09:30am 26.8 SSE 20 24 1015.6 - 0.0 - - - - - - -
09/09:00am 26.4 SSE 22 26 1015.5 - 0.0 - - - - - - -
09/08:30am 25.8 S 20 26 1015.4 - 0.0 - - - - - - -
09/08:00am 25.6 S 21 23 1015.2 - 0.0 - - - - - - -
09/07:30am 24.9 S 17 21 1015.2 - 0.0 - - - - - - -
09/07:00am 24.0 S 11 16 1015.1 - 0.0 - - - - - - -
09/06:30am 22.4 SSW 11 17 1014.8 - 0.0 - - - - - - -
09/06:00am 21.4 SSW 9 14 1014.6 - 0.0 - - - - - - -
09/05:30am 21.1 SSW 8 11 1014.1 - 0.0 - - - - - - -
09/05:00am 21.6 SSW 10 14 1013.8 - 0.0 - - - - - - -
09/04:30am 21.7 SSW 8 13 1013.5 - 0.0 - - - - - - -
09/04:00am 21.7 S 14 17 1013.3 - 0.0 - - - - - - -
09/03:30am 22.2 S 14 19 1013.1 - 0.0 - - - - - - -
09/03:00am 22.3 S 14 18 1013.2 - 0.0 - - - - - - -
09/02:30am 22.2 SSW 10 14 1013.2 - 0.0 - - - - - - -
09/02:00am 22.4 S 14 20 1013.4 - 0.0 - - - - - - -
09/01:30am 22.8 S 17 21 1013.7 - 0.0 - - - - - - -
09/01:00am 23.0 S 18 21 1014.0 - 0.0 - - - - - - -
09/12:30am 23.3 S 17 21 1014.4 - 0.0 - - - - - - -
09/12:00am 23.3 S 19 22 1014.6 - 0.0 - - - - - - -
 
Date/Time
EST
Temp

°C
Wind Pressure Rain
since 9am
mm
Weather Cloud Vis
km
Sea
Height
m
Swell
Dir
 
Speed
knots
Gust
knots
hPa Trend Height
m
Period
s
Dir
08/11:30pm 23.5 S 20 23 1015.0 - 0.0 - - - - - - -
08/11:00pm 23.7 S 20 24 1015.2 - 0.0 - - - - - - -
08/10:30pm 23.9 S 20 23 1015.3 - 0.0 - - - - - - -
08/10:00pm 24.0 S 20 23 1015.2 - 0.0 - - - - - - -
08/09:30pm 24.5 S 22 26 1015.2 - 0.0 - - - - - - -
08/09:00pm 24.9 SSE 25 30 1015.0 - 0.0 - - - - - - -
08/08:30pm 25.1 SSE 26 30 1014.7 - 0.0 - - - - - - -
08/08:00pm 25.3 SSE 24 30 1014.1 - 0.0 - - - - - - -
08/07:30pm 25.3 SE 28 32 1013.7 - 0.0 - - - - - - -
08/07:00pm 25.4 SE 26 30 1013.6 - 0.0 - - - - - - -
08/06:30pm 25.6 SE 23 27 1013.4 - 0.0 - - - - - - -
08/06:00pm 26.1 SE 24 28 1012.9 - 0.0 - - - - - - -
08/05:30pm 26.3 SE 22 27 1012.5 - 0.0 - - - - - - -
08/05:00pm 26.7 SE 19 24 1012.4 - 0.0 - - - - - - -
08/04:30pm 26.9 SE 21 26 1012.3 - 0.0 - - - - - - -
08/04:00pm 27.0 SE 20 23 1012.4 - 0.0 - - - - - - -
08/03:30pm 27.6 SE 20 23 1012.5 - 0.0 - - - - - - -
08/03:00pm 27.2 SE 20 24 1012.7 - 0.0 - - - - - - -
08/02:30pm 27.9 SE 20 23 1013.0 - 0.0 - - - - - - -
08/02:00pm 27.0 SE 19 22 1013.2 - 0.0 - - - - - - -
08/01:30pm 27.3 SE 20 23 1013.5 - 0.0 - - - - - - -
08/01:00pm 27.2 SE 20 23 1013.7 - 0.0 - - - - - - -
08/12:30pm 27.5 SE 20 24 1014.0 - 0.0 - - - - - - -
08/12:00pm 27.8 SE 18 21 1014.2 - 0.0 - - - - - - -
08/11:30am 26.9 SE 15 17 1014.5 - 0.0 - - - - - - -
08/11:00am 27.7 SSE 12 15 1014.9 - 0.0 - - - - - - -
08/10:30am 26.7 SSE 12 16 1015.2 - 0.0 - - - - - - -
08/10:00am 27.3 SSE 14 16 1015.3 - 0.0 - - - - - - -
08/09:30am 27.0 S 13 16 1015.6 - 0.0 - - - - - - -
08/09:00am 25.9 S 15 18 1015.6 - 0.0 - - - - - - -
08/08:30am 25.2 S 15 19 1015.5 - 0.0 - - - - - - -
08/08:00am 24.9 S 15 18 1015.4 - 0.0 - - - - - - -
08/07:30am 24.1 SSW 11 15 1015.3 - 0.0 - - - - - - -
08/07:00am 22.9 SSW 9 11 1015.0 - 0.0 - - - - - - -
08/06:30am 21.5 SSW 8 11 1014.9 - 0.0 - - - - - - -
08/06:00am 20.9 SSW 9 12 1014.7 - 0.0 - - - - - - -
08/05:30am 20.7 SSW 10 14 1014.1 - 0.0 - - - - - - -
08/05:00am 20.6 SSW 9 13 1014.0 - 0.0 - - - - - - -
08/04:30am 20.4 SW 8 11 1013.9 - 0.0 - - - - - - -
08/04:00am 20.5 SW 7 9 1013.8 - 0.0 - - - - - - -
08/03:30am 20.6 SSW 9 13 1014.3 - 0.0 - - - - - - -
08/03:00am 21.2 SSW 9 13 1014.1 - 0.0 - - - - - - -
08/02:30am 20.8 S 13 16 1014.2 - 0.0 - - - - - - -
08/02:00am 21.0 S 12 16 1014.2 - 0.0 - - - - - - -
08/01:30am 21.3 S 12 16 1014.4 - 0.0 - - - - - - -
08/01:00am 22.0 SSW 8 12 1014.7 - 0.0 - - - - - - -
08/12:30am 22.6 S 14 18 1014.9 - 0.0 - - - - - - -
08/12:00am 22.7 S 12 17 1015.4 - 0.0 - - - - - - -
 
Date/Time
EST
Temp

°C
Wind Pressure Rain
since 9am
mm
Weather Cloud Vis
km
Sea
Height
m
Swell
Dir
 
Speed
knots
Gust
knots
hPa Trend Height
m
Period
s
Dir
07/11:30pm 23.0 S 12 16 1015.3 - 0.0 - - - - - - -
07/11:00pm 23.1 S 16 19 1015.3 - 0.0 - - - - - - -
07/10:30pm 23.5 S 16 18 1015.2 - 0.0 - - - - - - -
07/10:00pm 23.7 S 17 19 1015.1 - 0.0 - - - - - - -
07/09:30pm 24.0 SSE 19 22 1014.7 - 0.0 - - - - - - -
07/09:00pm 24.4 SSE 20 22 1014.9 - 0.0 - - - - - - -
07/08:30pm 24.7 SSE 20 24 1014.5 - 0.0 - - - - - - -
07/08:00pm 24.9 SSE 22 26 1014.3 - 0.0 - - - - - - -
07/07:30pm 25.1 SSE 21 25 1014.5 - 0.0 - - - - - - -
07/07:00pm 25.3 SSE 21 25 1014.0 - 0.0 - - - - - - -
07/06:30pm 25.2 SSE 22 26 1013.5 - 0.0 - - - - - - -
07/06:00pm 25.4 SSE 22 25 1013.2 - 0.0 - - - - - - -
07/05:30pm 25.4 SSE 23 26 1012.7 - 0.0 - - - - - - -
07/05:00pm 25.5 SSE 24 28 1012.4 - 0.0 - - - - - - -
07/04:30pm 25.5 SE 21 24 1012.4 - 0.0 - - - - - - -
07/04:00pm 25.4 SSE 18 21 1012.5 - 0.0 - - - - - - -
07/03:30pm 25.2 SSE 22 24 1012.3 - 0.0 - - - - - - -
07/03:00pm 25.8 SSE 23 28 1012.1 - 0.0 - - - - - - -
07/02:30pm 25.7 SSE 19 21 1012.5 - 0.0 - - - - - - -
07/02:00pm 25.8 SSE 21 24 1012.7 - 0.0 - - - - - - -
07/01:30pm 25.9 SE 22 26 1012.8 - 0.0 - - - - - - -
07/01:00pm 26.8 SSE 23 26 1012.6 - 0.0 - - - - - - -
07/12:30pm 26.4 SE 21 24 1012.8 - 0.0 - - - - - - -
07/12:00pm 27.8 SSE 20 23 1012.9 - 0.0 - - - - - - -
07/11:30am 26.6 SSE 19 22 1012.9 - 0.0 - - - - - - -
07/11:00am 26.7 SSE 19 22 1012.8 - 0.0 - - - - - - -
07/10:30am 25.9 SSE 21 25 1013.1 - 0.0 - - - - - - -
07/10:00am 26.2 SSE 19 22 1013.3 - 0.0 - - - - - - -
07/09:30am 25.6 SSE 18 21 1013.3 - 0.0 - - - - - - -
07/09:00am 26.0 SSE 18 22 1013.1 - 2.4 - - - - - - -
07/08:30am 24.9 S 20 22 1013.1 - 2.4 - - - - - - -
07/08:00am 24.8 SSE 20 23 1012.9 - 2.4 - - - - - - -
07/07:30am 24.3 S 18 21 1012.8 - 2.4 - - - - - - -
07/07:00am 23.5 S 16 19 1012.9 - 2.4 - - - - - - -
07/06:30am 22.9 SSW 11 17 1012.7 - 2.4 - - - - - - -
07/06:00am 22.3 S 13 20 1012.4 - 2.4 - - - - - - -
07/05:30am 22.4 S 13 18 1012.0 - 2.4 - - - - - - -
07/05:00am 22.7 S 17 22 1011.6 - 2.4 - - - - - - -
07/04:30am 22.8 S 19 24 1011.4 - 2.4 - - - - - - -
07/04:00am 22.9 S 17 20 1011.1 - 2.4 - - - - - - -
07/03:30am 22.9 S 17 20 1011.2 - 2.4 - - - - - - -
07/03:00am 22.9 SSW 11 16 1011.1 - 2.4 - - - - - - -
07/02:30am 23.0 S 11 15 1011.0 - 2.4 - - - - - - -
07/02:00am 23.0 SSW 9 13 1011.1 - 2.4 - - - - - - -
07/01:30am 22.9 S 12 14 1011.1 - 2.4 - - - - - - -
07/01:00am 22.9 S 12 14 1011.1 - 2.4 - - - - - - -
07/12:30am 22.9 S 10 13 1011.3 - 2.4 - - - - - - -
07/12:00am 23.1 S 12 15 1011.7 - 2.4 - - - - - - -
 
Date/Time
EST
Temp

°C
Wind Pressure Rain
since 9am
mm
Weather Cloud Vis
km
Sea
Height
m
Swell
Dir
 
Speed
knots
Gust
knots
hPa Trend Height
m
Period
s
Dir
06/11:30pm 23.0 S 13 16 1012.0 - 2.4 - - - - - - -
06/11:00pm 23.1 S 13 17 1012.4 - 2.4 - - - - - - -
06/10:30pm 23.5 SSE 19 22 1012.8 - 2.4 - - - - - - -
06/10:00pm 23.6 SSE 16 24 1013.0 - 2.4 - - - - - - -
06/09:30pm 23.8 SSE 17 22 1012.8 - 2.4 - - - - - - -
06/09:00pm 23.3 SSE 15 19 1012.4 - 2.2 Recent precip. - - - - - -
06/08:30pm 23.8 SSE 16 21 1012.3 - 2.0 - - - - - - -

Other Formats:

Comma delimited format used in spreadsheet applications
http://www.bom.gov.au/fwo/IDQ60701/IDQ60701.95591.axf

JavaScript Object Notation format (JSON) in row-major order
http://www.bom.gov.au/fwo/IDQ60701/IDQ60701.95591.json